| time (UTC) | temp F | wind direction | speed MPH | gust MPH | rain 1hr in | rain 24hr in | rain mn in | humidity % | barometer mb |
| 20260504001540 | 63 | 219 | 3.0 | 8.0 | 0.00 | 0.00 | 0.00 | 57 | 1009.7 |
| 20260504000038 | 64 | 196 | 4.0 | 9.0 | 0.00 | 0.00 | 0.00 | 56 | 1009.8 |
| 20260503234542 | 65 | 207 | 6.0 | 15.0 | 0.00 | 0.00 | 0.00 | 54 | 1009.9 |
| 20260503233037 | 65 | 211 | 5.0 | 12.0 | 0.00 | 0.00 | 0.00 | 54 | 1010.1 |
| 20260503231535 | 66 | 211 | 7.0 | 15.0 | 0.00 | 0.00 | 0.00 | 52 | 1010.2 |
| 20260503230038 | 65 | 199 | 7.0 | 14.0 | 0.00 | 0.00 | 0.00 | 53 | 1010.5 |
| 20260503224532 | 65 | 211 | 5.0 | 10.0 | 0.00 | 0.00 | 0.00 | 54 | 1010.7 |
| 20260503223031 | 65 | 208 | 7.0 | 14.0 | 0.00 | 0.00 | 0.00 | 54 | 1010.8 |
| 20260503221534 | 64 | 227 | 6.0 | 14.0 | 0.00 | 0.00 | 0.00 | 54 | 1010.9 |
| 20260503220029 | 64 | 205 | 5.0 | 15.0 | 0.00 | 0.00 | 0.00 | 54 | 1011.0 |
| 20260503214528 | 65 | 205 | 8.0 | 19.0 | 0.00 | 0.00 | 0.00 | 53 | 1010.9 |
| 20260503213027 | 63 | 213 | 12.0 | 27.0 | 0.00 | 0.00 | 0.00 | 54 | 1010.9 |
| 20260503211524 | 63 | 205 | 10.0 | 22.0 | 0.00 | 0.00 | 0.00 | 53 | 1011.4 |
| 20260503210026 | 63 | 221 | 7.0 | 16.0 | 0.00 | 0.00 | 0.00 | 52 | 1011.6 |
| 20260503204531 | 65 | 186 | 11.0 | 23.0 | 0.00 | 0.00 | 0.00 | 49 | 1011.7 |
| 20260503203023 | 64 | 168 | 11.0 | 28.0 | 0.00 | 0.00 | 0.00 | 51 | 1011.5 |
| 20260503201518 | 65 | 191 | 13.0 | 26.0 | 0.00 | 0.00 | 0.00 | 49 | 1012.0 |
| 20260503200015 | 65 | 194 | 14.0 | 25.0 | 0.00 | 0.00 | 0.00 | 49 | 1012.6 |
| 20260503194514 | 64 | 194 | 14.0 | 25.0 | 0.00 | 0.00 | 0.00 | 51 | 1013.0 |
| 20260503193011 | 64 | 205 | 10.0 | 28.0 | 0.00 | 0.00 | 0.00 | 50 | 1013.5 |
| 20260503191505 | 62 | 212 | 9.0 | 19.0 | 0.00 | 0.00 | 0.00 | 50 | 1013.8 |
| 20260503190002 | 61 | 196 | 9.0 | 19.0 | 0.00 | 0.00 | 0.00 | 51 | 1014.6 |
| 20260503184601 | 61 | 204 | 8.0 | 15.0 | 0.00 | 0.00 | 0.00 | 51 | 1014.8 |
| 20260503183114 | 61 | 215 | 9.0 | 18.0 | 0.00 | 0.00 | 0.00 | 50 | 1015.4 |
| 20260503181559 | 62 | 202 | 9.0 | 16.0 | 0.00 | 0.00 | 0.00 | 49 | 1015.4 |
| 20260503180056 | 63 | 231 | 8.0 | 15.0 | 0.00 | 0.00 | 0.00 | 48 | 1015.2 |
| 20260503174554 | 62 | 197 | 7.0 | 20.0 | 0.00 | 0.00 | 0.00 | 51 | 1015.5 |
| 20260503173115 | 62 | 175 | 7.0 | 16.0 | 0.00 | 0.00 | 0.00 | 52 | 1015.7 |
| 20260503171550 | 62 | 189 | 10.0 | 20.0 | 0.00 | 0.00 | 0.00 | 52 | 1016.2 |
| 20260503090131 | 37 | 288 | 0.0 | 0.0 | 0.00 | 0.00 | 0.00 | 81 | 1019.1 |
| 20260503081525 | 37 | 288 | 0.0 | 0.0 | 0.00 | 0.00 | 0.00 | 82 | 1019.2 |
| 20260503071519 | 38 | 288 | 0.0 | 0.0 | 0.00 | 0.00 | 0.00 | 78 | 1019.4 |
| 20260503054511 | 39 | 288 | 0.0 | 0.0 | 0.00 | 0.00 | 0.00 | 81 | 1019.9 |
| 20260503053010 | 39 | 288 | 0.0 | 0.0 | 0.00 | 0.00 | 0.00 | 81 | 1019.8 |
| 20260503051506 | 39 | 288 | 0.0 | 0.0 | 0.00 | 0.00 | 0.00 | 81 | 1020.0 |
| 20260503050004 | 40 | 288 | 0.0 | 0.0 | 0.00 | 0.00 | 0.00 | 81 | 1020.0 |
| 20260503044503 | 40 | 288 | 0.0 | 0.0 | 0.00 | 0.00 | 0.00 | 81 | 1019.9 |
| 20260503043007 | 40 | 288 | 0.0 | 0.0 | 0.00 | 0.00 | 0.00 | 81 | 1019.8 |
| 20260503041502 | 40 | 288 | 0.0 | 0.0 | 0.00 | 0.00 | 0.00 | 80 | 1019.9 |
| 20260503040002 | 41 | 288 | 0.0 | 0.0 | 0.00 | 0.00 | 0.00 | 78 | 1019.9 |
| 20260503034503 | 42 | 288 | 0.0 | 0.0 | 0.00 | 0.00 | 0.00 | 77 | 1019.9 |
| 20260503033103 | 42 | 288 | 0.0 | 0.0 | 0.00 | 0.00 | 0.00 | 76 | 1020.1 |
| 20260503033001 | 42 | 288 | 0.0 | 0.0 | 0.00 | 0.00 | 0.00 | 75 | 1020.1 |
| 20260503031600 | 43 | 288 | 0.0 | 0.0 | 0.00 | 0.00 | 0.00 | 72 | 1020.1 |
| 20260503030059 | 45 | 288 | 0.0 | 0.0 | 0.00 | 0.00 | 0.00 | 68 | 1020.1 |
| 20260503024605 | 46 | 288 | 0.0 | 1.0 | 0.00 | 0.00 | 0.00 | 68 | 1020.2 |
| 20260503023059 | 47 | 288 | 0.0 | 0.0 | 0.00 | 0.00 | 0.00 | 65 | 1020.0 |
| 20260503021556 | 47 | 288 | 0.0 | 1.0 | 0.00 | 0.00 | 0.00 | 63 | 1019.8 |
| 20260503014619 | 46 | 289 | 0.0 | 2.0 | 0.00 | 0.00 | 0.00 | 65 | 1019.7 |
| 20260503013056 | 49 | 289 | 0.0 | 2.0 | 0.00 | 0.00 | 0.00 | 62 | 1019.6 |
| 20260503011553 | 51 | 289 | 1.0 | 3.0 | 0.00 | 0.00 | 0.00 | 56 | 1019.5 |
| 20260503010054 | 51 | 290 | 1.0 | 3.0 | 0.00 | 0.00 | 0.00 | 53 | 1019.4 |
| 20260503004552 | 53 | 291 | 1.0 | 3.0 | 0.00 | 0.00 | 0.00 | 48 | 1019.5 |
| 20260503003052 | 54 | 302 | 3.0 | 4.0 | 0.00 | 0.00 | 0.00 | 45 | 1019.5 |